Sweetser, IN (46987)

12:47 PM EST on February 13, 2016 (GMT -0500)
Middlesworth | | Change Station
CLOSE
Current Station
Personal Weather Station
Location: Marion, IN
Elevation: 856 ft
Nearby Weather Stations

Elev 856 ft 40.52 °N, 85.76 °W | Updated 36 seconds ago

Clear
Clear
15.3 °F
Feels Like 0 °F
N
14.8
Wind Variable Wind from ESE
Gusts 18.0 mph

Today
High -- | Low -- °F
--% Chance of Precip.
Yesterday
High -- | Low -- °F
Precip. -- in
Pressure 30.54 in
Visibility 10.0 miles
Clouds Clear
Windchill 0 °F
Dew Point 7 °F
Humidity 69%
Rainfall 0.00 in
Snow Depth Not available.
7:39 AM 6:15 PM
Waxing Crescent, 32% visible
METAR KMZZ 131735Z AUTO 31011KT 10SM CLR M10/M21 A3054 RMK AO2 T11001206
Pressure 30.54 in
Visibility 10.0 miles
Clouds Clear
Windchill 0 °F
Dew Point 7 °F
Humidity 69%
Rainfall 0.00 in
Snow Depth Not available.
7:39 AM 6:15 PM
Waxing Crescent, 32% visible
METAR KMZZ 131735Z AUTO 31011KT 10SM CLR M10/M21 A3054 RMK AO2 T11001206

10-Day Weather Forecast

Almanac

Astronomy

Feb. 13, 2016 Rise Set
Actual Time
Civil Twilight
Nautical Twilight
Astronomical Twilight
Moon
Length of Visible Light
Length of Day
Tomorrow will be .
, % of the Moon is Illuminated

Today's Extremes

State Highs State Lows

Community

WunderPhotos

Upload Photos

1,892,623 photos uploaded!

WunderBlog® & News

Nearby

Air Quality

  Air Quality AQ Index Pollutant
Not available.

Snow Depth

Station Depth Elevation

Earthquake Activity

City Distance Mag. Time & Date
Minimum magnitude displayed is 2.5.

Coastal Water Temperatures

Place Temperature

Stations

Nearby Weather Stations

Station Location Temp. Windchill Dew Point Humidity Wind Precip. Elev Updated Type
                   

Watches & Warnings

There are currently no watches in effect.